sensor_id;sensor_type;location;lat;lon;timestamp;temperature;humidity
22578;DHT22;11455;52.390;13.028;2022-11-20T00:03:46;3.10;99.90
22578;DHT22;11455;52.390;13.028;2022-11-20T00:06:13;3.10;99.90
22578;DHT22;11455;52.390;13.028;2022-11-20T00:08:39;3.10;99.90
22578;DHT22;11455;52.390;13.028;2022-11-20T00:13:31;3.10;99.90
22578;DHT22;11455;52.390;13.028;2022-11-20T00:15:57;3.10;99.90
22578;DHT22;11455;52.390;13.028;2022-11-20T00:18:24;3.10;99.90
22578;DHT22;11455;52.390;13.028;2022-11-20T00:20:50;3.10;99.90
22578;DHT22;11455;52.390;13.028;2022-11-20T00:23:15;3.10;99.90
22578;DHT22;11455;52.390;13.028;2022-11-20T00:25:41;3.10;99.90
22578;DHT22;11455;52.390;13.028;2022-11-20T00:28:06;3.10;99.90
22578;DHT22;11455;52.390;13.028;2022-11-20T00:30:32;3.10;99.90
22578;DHT22;11455;52.390;13.028;2022-11-20T00:32:57;3.10;99.90
22578;DHT22;11455;52.390;13.028;2022-11-20T00:35:23;3.10;99.90
22578;DHT22;11455;52.390;13.028;2022-11-20T00:37:51;3.10;99.90
22578;DHT22;11455;52.390;13.028;2022-11-20T00:40:17;3.10;99.90
22578;DHT22;11455;52.390;13.028;2022-11-20T00:42:43;3.10;99.90
22578;DHT22;11455;52.390;13.028;2022-11-20T00:45:08;3.10;99.90
22578;DHT22;11455;52.390;13.028;2022-11-20T00:47:34;3.10;99.90
22578;DHT22;11455;52.390;13.028;2022-11-20T00:50:00;3.10;99.90
22578;DHT22;11455;52.390;13.028;2022-11-20T00:52:26;3.10;99.90
22578;DHT22;11455;52.390;13.028;2022-11-20T00:54:51;3.10;99.90
22578;DHT22;11455;52.390;13.028;2022-11-20T00:57:20;3.20;99.90
22578;DHT22;11455;52.390;13.028;2022-11-20T00:59:46;3.20;99.90
22578;DHT22;11455;52.390;13.028;2022-11-20T01:02:12;3.20;99.90
22578;DHT22;11455;52.390;13.028;2022-11-20T01:04:37;3.20;99.90
22578;DHT22;11455;52.390;13.028;2022-11-20T01:07:03;3.10;99.90
22578;DHT22;11455;52.390;13.028;2022-11-20T01:09:29;3.10;99.90
22578;DHT22;11455;52.390;13.028;2022-11-20T01:11:57;3.10;99.90
22578;DHT22;11455;52.390;13.028;2022-11-20T01:14:22;3.10;99.90
22578;DHT22;11455;52.390;13.028;2022-11-20T01:16:49;3.10;99.90
22578;DHT22;11455;52.390;13.028;2022-11-20T01:19:16;3.10;99.90
22578;DHT22;11455;52.390;13.028;2022-11-20T01:21:42;3.10;99.90
22578;DHT22;11455;52.390;13.028;2022-11-20T01:24:12;3.10;99.90
22578;DHT22;11455;52.390;13.028;2022-11-20T01:26:41;3.10;99.90
22578;DHT22;11455;52.390;13.028;2022-11-20T01:29:09;3.10;99.90
22578;DHT22;11455;52.390;13.028;2022-11-20T01:31:37;3.10;99.90
22578;DHT22;11455;52.390;13.028;2022-11-20T01:34:04;3.10;99.90
22578;DHT22;11455;52.390;13.028;2022-11-20T01:36:31;3.10;99.90
22578;DHT22;11455;52.390;13.028;2022-11-20T01:39:01;3.10;99.90
22578;DHT22;11455;52.390;13.028;2022-11-20T01:41:28;3.10;99.90
22578;DHT22;11455;52.390;13.028;2022-11-20T01:44:13;3.10;99.90
22578;DHT22;11455;52.390;13.028;2022-11-20T01:46:42;3.00;99.90
22578;DHT22;11455;52.390;13.028;2022-11-20T01:49:17;3.00;99.90
22578;DHT22;11455;52.390;13.028;2022-11-20T01:54:15;3.00;99.90
22578;DHT22;11455;52.390;13.028;2022-11-20T01:56:45;3.00;99.90
22578;DHT22;11455;52.390;13.028;2022-11-20T01:59:11;3.00;99.90
22578;DHT22;11455;52.390;13.028;2022-11-20T02:01:38;3.00;99.90
22578;DHT22;11455;52.390;13.028;2022-11-20T02:04:04;3.00;99.90
22578;DHT22;11455;52.390;13.028;2022-11-20T02:06:35;3.00;99.90
22578;DHT22;11455;52.390;13.028;2022-11-20T02:09:01;3.00;99.90
22578;DHT22;11455;52.390;13.028;2022-11-20T02:11:27;3.00;99.90
22578;DHT22;11455;52.390;13.028;2022-11-20T02:13:54;2.90;99.90
22578;DHT22;11455;52.390;13.028;2022-11-20T02:16:25;2.90;99.90
22578;DHT22;11455;52.390;13.028;2022-11-20T02:18:51;2.90;99.90
22578;DHT22;11455;52.390;13.028;2022-11-20T02:24:00;2.80;99.90
22578;DHT22;11455;52.390;13.028;2022-11-20T02:26:27;2.80;99.90
22578;DHT22;11455;52.390;13.028;2022-11-20T02:28:54;2.80;99.90
22578;DHT22;11455;52.390;13.028;2022-11-20T02:31:20;2.70;99.90
22578;DHT22;11455;52.390;13.028;2022-11-20T02:33:45;2.70;99.90
22578;DHT22;11455;52.390;13.028;2022-11-20T02:36:11;2.80;99.90
22578;DHT22;11455;52.390;13.028;2022-11-20T02:38:39;2.80;99.90
22578;DHT22;11455;52.390;13.028;2022-11-20T02:41:05;2.80;99.90
22578;DHT22;11455;52.390;13.028;2022-11-20T02:43:30;2.80;99.90
22578;DHT22;11455;52.390;13.028;2022-11-20T02:45:56;2.80;99.90
22578;DHT22;11455;52.390;13.028;2022-11-20T02:48:22;2.90;99.90
22578;DHT22;11455;52.390;13.028;2022-11-20T02:50:47;3.00;99.90
22578;DHT22;11455;52.390;13.028;2022-11-20T02:53:13;3.00;99.90
22578;DHT22;11455;52.390;13.028;2022-11-20T02:55:39;3.00;99.90
22578;DHT22;11455;52.390;13.028;2022-11-20T02:58:04;3.00;99.90
22578;DHT22;11455;52.390;13.028;2022-11-20T03:00:30;3.00;99.90
22578;DHT22;11455;52.390;13.028;2022-11-20T03:02:59;3.00;99.90
22578;DHT22;11455;52.390;13.028;2022-11-20T03:05:32;3.00;99.90
22578;DHT22;11455;52.390;13.028;2022-11-20T03:07:57;3.00;99.90
22578;DHT22;11455;52.390;13.028;2022-11-20T03:10:23;3.00;99.90
22578;DHT22;11455;52.390;13.028;2022-11-20T03:12:52;3.00;99.90
22578;DHT22;11455;52.390;13.028;2022-11-20T03:15:24;2.90;99.90
22578;DHT22;11455;52.390;13.028;2022-11-20T03:17:52;3.00;99.90
22578;DHT22;11455;52.390;13.028;2022-11-20T03:20:18;3.00;99.90
22578;DHT22;11455;52.390;13.028;2022-11-20T03:22:43;3.00;99.90
22578;DHT22;11455;52.390;13.028;2022-11-20T03:25:09;3.00;99.90
22578;DHT22;11455;52.390;13.028;2022-11-20T03:27:34;3.00;99.90
22578;DHT22;11455;52.390;13.028;2022-11-20T03:30:03;2.90;99.90
22578;DHT22;11455;52.390;13.028;2022-11-20T03:32:28;2.90;99.90
22578;DHT22;11455;52.390;13.028;2022-11-20T03:34:57;2.90;99.90
22578;DHT22;11455;52.390;13.028;2022-11-20T03:37:25;2.90;99.90
22578;DHT22;11455;52.390;13.028;2022-11-20T03:39:53;2.90;99.90
22578;DHT22;11455;52.390;13.028;2022-11-20T03:42:18;3.00;99.90
22578;DHT22;11455;52.390;13.028;2022-11-20T03:45:03;3.00;99.90
22578;DHT22;11455;52.390;13.028;2022-11-20T03:47:29;3.00;99.90
22578;DHT22;11455;52.390;13.028;2022-11-20T03:49:57;3.00;99.90
22578;DHT22;11455;52.390;13.028;2022-11-20T03:52:23;3.00;99.90
22578;DHT22;11455;52.390;13.028;2022-11-20T03:54:48;3.00;99.90
22578;DHT22;11455;52.390;13.028;2022-11-20T03:57:14;3.00;99.90
22578;DHT22;11455;52.390;13.028;2022-11-20T03:59:40;3.00;99.90
22578;DHT22;11455;52.390;13.028;2022-11-20T04:02:05;3.00;99.90
22578;DHT22;11455;52.390;13.028;2022-11-20T04:04:31;3.10;99.90
22578;DHT22;11455;52.390;13.028;2022-11-20T04:06:59;3.10;99.90
22578;DHT22;11455;52.390;13.028;2022-11-20T04:09:25;3.00;99.90
22578;DHT22;11455;52.390;13.028;2022-11-20T04:11:50;3.00;99.90
22578;DHT22;11455;52.390;13.028;2022-11-20T04:14:16;3.10;99.90
22578;DHT22;11455;52.390;13.028;2022-11-20T04:16:42;3.10;99.90
22578;DHT22;11455;52.390;13.028;2022-11-20T04:19:12;3.10;99.90
22578;DHT22;11455;52.390;13.028;2022-11-20T04:21:38;3.10;99.90
22578;DHT22;11455;52.390;13.028;2022-11-20T04:24:03;3.10;99.90
22578;DHT22;11455;52.390;13.028;2022-11-20T04:26:29;3.10;99.90
22578;DHT22;11455;52.390;13.028;2022-11-20T04:28:55;3.20;99.90
22578;DHT22;11455;52.390;13.028;2022-11-20T04:31:23;3.20;99.90
22578;DHT22;11455;52.390;13.028;2022-11-20T04:33:49;3.20;99.90
22578;DHT22;11455;52.390;13.028;2022-11-20T04:36:16;3.30;99.90
22578;DHT22;11455;52.390;13.028;2022-11-20T04:38:42;3.30;99.90
22578;DHT22;11455;52.390;13.028;2022-11-20T04:41:18;3.30;99.90
22578;DHT22;11455;52.390;13.028;2022-11-20T04:43:50;3.30;99.90
22578;DHT22;11455;52.390;13.028;2022-11-20T04:46:17;3.30;99.90
22578;DHT22;11455;52.390;13.028;2022-11-20T04:48:42;3.20;99.90
22578;DHT22;11455;52.390;13.028;2022-11-20T04:51:08;3.20;99.90
22578;DHT22;11455;52.390;13.028;2022-11-20T04:53:34;3.30;99.90
22578;DHT22;11455;52.390;13.028;2022-11-20T04:56:00;3.30;99.90
22578;DHT22;11455;52.390;13.028;2022-11-20T04:58:26;3.30;99.90
22578;DHT22;11455;52.390;13.028;2022-11-20T05:00:52;3.30;99.90
22578;DHT22;11455;52.390;13.028;2022-11-20T05:03:18;3.30;99.90
22578;DHT22;11455;52.390;13.028;2022-11-20T05:05:43;3.30;99.90
22578;DHT22;11455;52.390;13.028;2022-11-20T05:08:09;3.30;99.90
22578;DHT22;11455;52.390;13.028;2022-11-20T05:10:34;3.30;99.90
22578;DHT22;11455;52.390;13.028;2022-11-20T05:13:00;3.30;99.90
22578;DHT22;11455;52.390;13.028;2022-11-20T05:15:28;3.30;99.90
22578;DHT22;11455;52.390;13.028;2022-11-20T05:17:54;3.30;99.90
22578;DHT22;11455;52.390;13.028;2022-11-20T05:20:19;3.30;99.90
22578;DHT22;11455;52.390;13.028;2022-11-20T05:22:48;3.30;99.90
22578;DHT22;11455;52.390;13.028;2022-11-20T05:25:14;3.20;99.90
22578;DHT22;11455;52.390;13.028;2022-11-20T05:27:39;3.30;99.90
22578;DHT22;11455;52.390;13.028;2022-11-20T05:30:05;3.30;99.90
22578;DHT22;11455;52.390;13.028;2022-11-20T05:32:31;3.30;99.90
22578;DHT22;11455;52.390;13.028;2022-11-20T05:34:59;3.20;99.90
22578;DHT22;11455;52.390;13.028;2022-11-20T05:37:24;3.20;99.90
22578;DHT22;11455;52.390;13.028;2022-11-20T05:39:50;3.20;99.90
22578;DHT22;11455;52.390;13.028;2022-11-20T05:42:19;3.20;99.90
22578;DHT22;11455;52.390;13.028;2022-11-20T05:45:03;3.20;99.90
22578;DHT22;11455;52.390;13.028;2022-11-20T05:47:38;3.20;99.90
22578;DHT22;11455;52.390;13.028;2022-11-20T05:50:04;3.20;99.90
22578;DHT22;11455;52.390;13.028;2022-11-20T05:52:37;3.20;99.90
22578;DHT22;11455;52.390;13.028;2022-11-20T05:55:03;3.20;99.90
22578;DHT22;11455;52.390;13.028;2022-11-20T05:57:29;3.20;99.90
22578;DHT22;11455;52.390;13.028;2022-11-20T05:59:56;3.20;99.90
22578;DHT22;11455;52.390;13.028;2022-11-20T06:02:21;3.10;99.90
22578;DHT22;11455;52.390;13.028;2022-11-20T06:04:47;3.10;99.90
22578;DHT22;11455;52.390;13.028;2022-11-20T06:07:12;3.10;99.90
22578;DHT22;11455;52.390;13.028;2022-11-20T06:09:38;3.00;99.90
22578;DHT22;11455;52.390;13.028;2022-11-20T06:12:04;2.90;99.90
22578;DHT22;11455;52.390;13.028;2022-11-20T06:14:30;2.90;99.90
22578;DHT22;11455;52.390;13.028;2022-11-20T06:16:58;3.00;99.90
22578;DHT22;11455;52.390;13.028;2022-11-20T06:19:23;3.10;99.90
22578;DHT22;11455;52.390;13.028;2022-11-20T06:21:49;3.10;99.90
22578;DHT22;11455;52.390;13.028;2022-11-20T06:24:15;3.00;99.90
22578;DHT22;11455;52.390;13.028;2022-11-20T06:26:41;3.00;99.90
22578;DHT22;11455;52.390;13.028;2022-11-20T06:29:09;3.00;99.90
22578;DHT22;11455;52.390;13.028;2022-11-20T06:31:44;3.00;99.90
22578;DHT22;11455;52.390;13.028;2022-11-20T06:34:10;3.00;99.90
22578;DHT22;11455;52.390;13.028;2022-11-20T06:36:35;3.00;99.90
22578;DHT22;11455;52.390;13.028;2022-11-20T06:39:01;3.00;99.90
22578;DHT22;11455;52.390;13.028;2022-11-20T06:41:27;3.00;99.90
22578;DHT22;11455;52.390;13.028;2022-11-20T06:43:53;3.00;99.90
22578;DHT22;11455;52.390;13.028;2022-11-20T06:46:19;3.00;99.90
22578;DHT22;11455;52.390;13.028;2022-11-20T06:48:47;3.10;99.90
22578;DHT22;11455;52.390;13.028;2022-11-20T06:51:13;3.10;99.90
22578;DHT22;11455;52.390;13.028;2022-11-20T06:53:39;3.20;99.90
22578;DHT22;11455;52.390;13.028;2022-11-20T06:56:06;3.20;99.90
22578;DHT22;11455;52.390;13.028;2022-11-20T06:58:32;3.10;99.90
22578;DHT22;11455;52.390;13.028;2022-11-20T07:01:01;3.10;99.90
22578;DHT22;11455;52.390;13.028;2022-11-20T07:03:27;3.10;99.90
22578;DHT22;11455;52.390;13.028;2022-11-20T07:05:57;3.00;99.90
22578;DHT22;11455;52.390;13.028;2022-11-20T07:08:23;3.00;99.90
22578;DHT22;11455;52.390;13.028;2022-11-20T07:10:49;3.00;99.90
22578;DHT22;11455;52.390;13.028;2022-11-20T07:13:14;3.10;99.90
22578;DHT22;11455;52.390;13.028;2022-11-20T07:15:40;3.10;99.90
22578;DHT22;11455;52.390;13.028;2022-11-20T07:18:05;3.10;99.90
22578;DHT22;11455;52.390;13.028;2022-11-20T07:20:31;3.20;99.90
22578;DHT22;11455;52.390;13.028;2022-11-20T07:22:59;3.20;95.10
22578;DHT22;11455;52.390;13.028;2022-11-20T07:25:26;3.30;93.00
22578;DHT22;11455;52.390;13.028;2022-11-20T07:27:52;3.20;96.20
22578;DHT22;11455;52.390;13.028;2022-11-20T07:30:18;3.30;99.90
22578;DHT22;11455;52.390;13.028;2022-11-20T07:32:47;3.30;95.60
22578;DHT22;11455;52.390;13.028;2022-11-20T07:35:13;3.20;93.70
22578;DHT22;11455;52.390;13.028;2022-11-20T07:37:38;3.20;97.70
22578;DHT22;11455;52.390;13.028;2022-11-20T07:40:04;3.20;99.90
22578;DHT22;11455;52.390;13.028;2022-11-20T07:42:30;3.20;99.90
22578;DHT22;11455;52.390;13.028;2022-11-20T07:44:55;3.10;99.90
22578;DHT22;11455;52.390;13.028;2022-11-20T07:47:21;3.10;99.90
22578;DHT22;11455;52.390;13.028;2022-11-20T07:49:46;3.20;99.90
22578;DHT22;11455;52.390;13.028;2022-11-20T07:52:12;3.20;99.90
22578;DHT22;11455;52.390;13.028;2022-11-20T07:54:40;3.30;99.90
22578;DHT22;11455;52.390;13.028;2022-11-20T07:57:06;3.30;99.40
22578;DHT22;11455;52.390;13.028;2022-11-20T07:59:32;3.40;97.30
22578;DHT22;11455;52.390;13.028;2022-11-20T08:01:58;3.30;96.80
22578;DHT22;11455;52.390;13.028;2022-11-20T08:04:29;3.30;89.20
22578;DHT22;11455;52.390;13.028;2022-11-20T08:06:54;3.30;95.90
22578;DHT22;11455;52.390;13.028;2022-11-20T08:09:20;3.30;91.10
22578;DHT22;11455;52.390;13.028;2022-11-20T08:11:45;3.30;90.00
22578;DHT22;11455;52.390;13.028;2022-11-20T08:14:30;3.30;88.20
22578;DHT22;11455;52.390;13.028;2022-11-20T08:16:55;3.30;81.20
22578;DHT22;11455;52.390;13.028;2022-11-20T08:19:21;3.20;96.40
22578;DHT22;11455;52.390;13.028;2022-11-20T08:21:47;3.30;97.20
22578;DHT22;11455;52.390;13.028;2022-11-20T08:24:15;3.30;92.30
22578;DHT22;11455;52.390;13.028;2022-11-20T08:26:41;3.30;86.40
22578;DHT22;11455;52.390;13.028;2022-11-20T08:29:06;3.30;80.40
22578;DHT22;11455;52.390;13.028;2022-11-20T08:31:32;3.30;90.90
22578;DHT22;11455;52.390;13.028;2022-11-20T08:33:58;3.30;65.10
22578;DHT22;11455;52.390;13.028;2022-11-20T08:36:24;3.40;81.20
22578;DHT22;11455;52.390;13.028;2022-11-20T08:38:50;3.40;58.20
22578;DHT22;11455;52.390;13.028;2022-11-20T08:41:18;3.40;46.00
22578;DHT22;11455;52.390;13.028;2022-11-20T08:43:52;3.30;59.60
22578;DHT22;11455;52.390;13.028;2022-11-20T08:46:18;3.20;95.00
22578;DHT22;11455;52.390;13.028;2022-11-20T08:48:44;3.20;97.10
22578;DHT22;11455;52.390;13.028;2022-11-20T08:51:12;3.10;99.90
22578;DHT22;11455;52.390;13.028;2022-11-20T08:53:38;3.20;99.90
22578;DHT22;11455;52.390;13.028;2022-11-20T08:56:04;3.30;84.90
22578;DHT22;11455;52.390;13.028;2022-11-20T08:58:30;3.30;81.60
22578;DHT22;11455;52.390;13.028;2022-11-20T09:00:55;3.30;88.40
22578;DHT22;11455;52.390;13.028;2022-11-20T09:03:21;3.40;65.90
22578;DHT22;11455;52.390;13.028;2022-11-20T09:05:47;3.40;54.70
22578;DHT22;11455;52.390;13.028;2022-11-20T09:08:13;3.40;38.80
22578;DHT22;11455;52.390;13.028;2022-11-20T09:10:38;3.30;41.10
22578;DHT22;11455;52.390;13.028;2022-11-20T09:13:07;3.20;53.10
22578;DHT22;11455;52.390;13.028;2022-11-20T09:15:35;3.20;58.90
22578;DHT22;11455;52.390;13.028;2022-11-20T09:18:01;3.20;58.40
22578;DHT22;11455;52.390;13.028;2022-11-20T09:20:28;3.10;53.00
22578;DHT22;11455;52.390;13.028;2022-11-20T09:22:54;3.10;43.10
22578;DHT22;11455;52.390;13.028;2022-11-20T09:25:20;3.00;59.70
22578;DHT22;11455;52.390;13.028;2022-11-20T09:27:46;3.00;57.30
22578;DHT22;11455;52.390;13.028;2022-11-20T09:30:12;3.00;60.20
22578;DHT22;11455;52.390;13.028;2022-11-20T09:32:38;3.00;63.50
22578;DHT22;11455;52.390;13.028;2022-11-20T09:35:06;3.00;65.80
22578;DHT22;11455;52.390;13.028;2022-11-20T09:37:32;2.90;60.10
22578;DHT22;11455;52.390;13.028;2022-11-20T09:39:58;3.00;63.00
22578;DHT22;11455;52.390;13.028;2022-11-20T09:42:40;3.00;65.60
22578;DHT22;11455;52.390;13.028;2022-11-20T09:50:31;3.10;39.80
22578;DHT22;11455;52.390;13.028;2022-11-20T09:53:03;3.10;17.60
22578;DHT22;11455;52.390;13.028;2022-11-20T09:55:33;3.00;29.60
22578;DHT22;11455;52.390;13.028;2022-11-20T09:57:59;3.00;29.40
22578;DHT22;11455;52.390;13.028;2022-11-20T10:00:25;3.10;23.00
22578;DHT22;11455;52.390;13.028;2022-11-20T10:02:55;3.10;24.60
22578;DHT22;11455;52.390;13.028;2022-11-20T10:05:31;3.10;22.80
22578;DHT22;11455;52.390;13.028;2022-11-20T10:10:33;3.10;15.00
22578;DHT22;11455;52.390;13.028;2022-11-20T10:29:13;2.90;12.30
22578;DHT22;11455;52.390;13.028;2022-11-20T10:31:48;2.90;5.90
22578;DHT22;11455;52.390;13.028;2022-11-20T10:34:25;2.80;12.40
22578;DHT22;11455;52.390;13.028;2022-11-20T10:36:59;2.80;22.50
22578;DHT22;11455;52.390;13.028;2022-11-20T10:41:54;3.00;6.50
22578;DHT22;11455;52.390;13.028;2022-11-20T10:44:21;3.00;1.00
22578;DHT22;11455;52.390;13.028;2022-11-20T10:47:17;3.00;1.00
22578;DHT22;11455;52.390;13.028;2022-11-20T10:49:46;3.00;1.40
22578;DHT22;11455;52.390;13.028;2022-11-20T10:57:39;3.30;1.00
22578;DHT22;11455;52.390;13.028;2022-11-20T11:02:50;3.30;1.00
22578;DHT22;11455;52.390;13.028;2022-11-20T11:07:57;3.40;1.00
22578;DHT22;11455;52.390;13.028;2022-11-20T11:12:52;3.50;1.00
22578;DHT22;11455;52.390;13.028;2022-11-20T11:15:25;3.50;1.00
22578;DHT22;11455;52.390;13.028;2022-11-20T11:17:52;3.60;1.00
22578;DHT22;11455;52.390;13.028;2022-11-20T11:20:18;3.60;1.00
22578;DHT22;11455;52.390;13.028;2022-11-20T11:22:53;3.70;1.00
22578;DHT22;11455;52.390;13.028;2022-11-20T11:27:49;3.70;1.00
22578;DHT22;11455;52.390;13.028;2022-11-20T11:30:16;3.80;1.00
22578;DHT22;11455;52.390;13.028;2022-11-20T11:32:42;3.80;1.00
22578;DHT22;11455;52.390;13.028;2022-11-20T11:35:24;3.80;1.00
22578;DHT22;11455;52.390;13.028;2022-11-20T11:37:51;3.70;1.00
22578;DHT22;11455;52.390;13.028;2022-11-20T11:40:19;3.60;1.00
22578;DHT22;11455;52.390;13.028;2022-11-20T11:42:51;3.60;1.00
22578;DHT22;11455;52.390;13.028;2022-11-20T11:45:18;3.60;1.00
22578;DHT22;11455;52.390;13.028;2022-11-20T11:47:45;3.60;1.00
22578;DHT22;11455;52.390;13.028;2022-11-20T11:52:56;3.70;1.00
22578;DHT22;11455;52.390;13.028;2022-11-20T12:00:37;3.80;1.00
22578;DHT22;11455;52.390;13.028;2022-11-20T12:03:08;3.80;12.40
22578;DHT22;11455;52.390;13.028;2022-11-20T12:05:44;3.80;21.70
22578;DHT22;11455;52.390;13.028;2022-11-20T12:15:59;3.80;99.90
22578;DHT22;11455;52.390;13.028;2022-11-20T12:18:26;3.80;99.90
22578;DHT22;11455;52.390;13.028;2022-11-20T12:21:06;3.80;99.90
22578;DHT22;11455;52.390;13.028;2022-11-20T12:26:22;3.90;99.90
22578;DHT22;11455;52.390;13.028;2022-11-20T12:34:04;3.90;99.90
22578;DHT22;11455;52.390;13.028;2022-11-20T12:39:34;3.80;99.90
22578;DHT22;11455;52.390;13.028;2022-11-20T12:58:45;3.80;99.90
22578;DHT22;11455;52.390;13.028;2022-11-20T13:04:09;3.90;99.90
22578;DHT22;11455;52.390;13.028;2022-11-20T13:06:40;3.80;99.90
22578;DHT22;11455;52.390;13.028;2022-11-20T13:09:10;3.80;99.90
22578;DHT22;11455;52.390;13.028;2022-11-20T13:11:46;3.70;99.90
22578;DHT22;11455;52.390;13.028;2022-11-20T13:19:11;3.80;99.90
22578;DHT22;11455;52.390;13.028;2022-11-20T13:21:47;3.90;99.90
22578;DHT22;11455;52.390;13.028;2022-11-20T13:27:17;4.00;99.90
22578;DHT22;11455;52.390;13.028;2022-11-20T13:29:44;4.00;99.90
22578;DHT22;11455;52.390;13.028;2022-11-20T13:32:17;4.00;99.90
22578;DHT22;11455;52.390;13.028;2022-11-20T13:34:51;3.90;99.90
22578;DHT22;11455;52.390;13.028;2022-11-20T13:40:13;4.00;99.90
22578;DHT22;11455;52.390;13.028;2022-11-20T13:45:11;3.70;99.90
22578;DHT22;11455;52.390;13.028;2022-11-20T13:47:37;3.70;99.90
22578;DHT22;11455;52.390;13.028;2022-11-20T13:50:03;3.60;99.90
22578;DHT22;11455;52.390;13.028;2022-11-20T14:00:09;3.70;99.90
22578;DHT22;11455;52.390;13.028;2022-11-20T14:02:39;3.80;99.90
22578;DHT22;11455;52.390;13.028;2022-11-20T14:05:05;3.80;99.90
22578;DHT22;11455;52.390;13.028;2022-11-20T14:07:32;3.90;99.90
22578;DHT22;11455;52.390;13.028;2022-11-20T14:10:00;3.90;99.90
22578;DHT22;11455;52.390;13.028;2022-11-20T14:12:30;3.90;99.90
22578;DHT22;11455;52.390;13.028;2022-11-20T14:14:56;3.90;99.90
22578;DHT22;11455;52.390;13.028;2022-11-20T14:17:23;3.90;99.90
22578;DHT22;11455;52.390;13.028;2022-11-20T14:19:51;4.00;99.90
22578;DHT22;11455;52.390;13.028;2022-11-20T14:22:24;4.10;99.90
22578;DHT22;11455;52.390;13.028;2022-11-20T14:27:33;4.10;99.90
22578;DHT22;11455;52.390;13.028;2022-11-20T14:30:00;4.10;99.90
22578;DHT22;11455;52.390;13.028;2022-11-20T14:32:29;4.10;99.90
22578;DHT22;11455;52.390;13.028;2022-11-20T14:34:55;4.00;99.90
22578;DHT22;11455;52.390;13.028;2022-11-20T14:37:24;4.00;99.90
22578;DHT22;11455;52.390;13.028;2022-11-20T14:39:52;4.00;99.90
22578;DHT22;11455;52.390;13.028;2022-11-20T14:42:21;3.90;99.90
22578;DHT22;11455;52.390;13.028;2022-11-20T14:44:47;3.90;99.90
22578;DHT22;11455;52.390;13.028;2022-11-20T14:47:15;3.90;99.90
22578;DHT22;11455;52.390;13.028;2022-11-20T14:49:42;3.90;99.90
22578;DHT22;11455;52.390;13.028;2022-11-20T14:54:47;3.90;99.90
22578;DHT22;11455;52.390;13.028;2022-11-20T15:02:33;3.80;99.90
22578;DHT22;11455;52.390;13.028;2022-11-20T15:05:00;3.80;99.90
22578;DHT22;11455;52.390;13.028;2022-11-20T15:07:29;3.80;99.90
22578;DHT22;11455;52.390;13.028;2022-11-20T15:09:59;3.80;99.90
22578;DHT22;11455;52.390;13.028;2022-11-20T15:12:25;3.80;99.90
22578;DHT22;11455;52.390;13.028;2022-11-20T15:14:51;3.90;99.90
22578;DHT22;11455;52.390;13.028;2022-11-20T15:17:16;3.90;99.90
22578;DHT22;11455;52.390;13.028;2022-11-20T15:19:42;3.90;99.90
22578;DHT22;11455;52.390;13.028;2022-11-20T15:22:15;3.90;99.90
22578;DHT22;11455;52.390;13.028;2022-11-20T15:24:44;3.90;99.90
22578;DHT22;11455;52.390;13.028;2022-11-20T15:27:10;3.90;99.90
22578;DHT22;11455;52.390;13.028;2022-11-20T15:29:35;3.90;99.90
22578;DHT22;11455;52.390;13.028;2022-11-20T15:32:01;3.90;99.90
22578;DHT22;11455;52.390;13.028;2022-11-20T15:34:27;3.90;99.90
22578;DHT22;11455;52.390;13.028;2022-11-20T15:36:52;3.80;99.90
22578;DHT22;11455;52.390;13.028;2022-11-20T15:39:19;3.80;99.90
22578;DHT22;11455;52.390;13.028;2022-11-20T15:41:45;3.80;99.90
22578;DHT22;11455;52.390;13.028;2022-11-20T15:44:11;3.80;99.90
22578;DHT22;11455;52.390;13.028;2022-11-20T15:46:38;3.80;99.90
22578;DHT22;11455;52.390;13.028;2022-11-20T15:49:05;3.90;99.90
22578;DHT22;11455;52.390;13.028;2022-11-20T15:53:57;3.90;99.90
22578;DHT22;11455;52.390;13.028;2022-11-20T15:56:23;3.90;99.90
22578;DHT22;11455;52.390;13.028;2022-11-20T15:58:49;4.00;99.90
22578;DHT22;11455;52.390;13.028;2022-11-20T16:01:16;4.00;94.00
22578;DHT22;11455;52.390;13.028;2022-11-20T16:03:42;3.90;97.10
22578;DHT22;11455;52.390;13.028;2022-11-20T16:06:08;3.90;97.80
22578;DHT22;11455;52.390;13.028;2022-11-20T16:08:34;4.00;88.10
22578;DHT22;11455;52.390;13.028;2022-11-20T16:10:59;4.00;58.40
22578;DHT22;11455;52.390;13.028;2022-11-20T16:13:25;4.00;63.60
22578;DHT22;11455;52.390;13.028;2022-11-20T16:16:51;4.00;50.20
22578;DHT22;11455;52.390;13.028;2022-11-20T16:18:58;4.00;99.90
22578;DHT22;11455;52.390;13.028;2022-11-20T16:21:27;4.00;63.90
22578;DHT22;11455;52.390;13.028;2022-11-20T16:24:03;4.10;54.50
22578;DHT22;11455;52.390;13.028;2022-11-20T16:26:29;4.10;36.50
22578;DHT22;11455;52.390;13.028;2022-11-20T16:28:59;4.00;54.00
22578;DHT22;11455;52.390;13.028;2022-11-20T16:31:25;4.00;42.10
22578;DHT22;11455;52.390;13.028;2022-11-20T16:33:57;4.00;58.40
22578;DHT22;11455;52.390;13.028;2022-11-20T16:36:24;4.00;37.90
22578;DHT22;11455;52.390;13.028;2022-11-20T16:38:54;4.00;33.50
22578;DHT22;11455;52.390;13.028;2022-11-20T16:41:19;4.00;28.40
22578;DHT22;11455;52.390;13.028;2022-11-20T16:43:49;4.00;26.90
22578;DHT22;11455;52.390;13.028;2022-11-20T16:46:19;4.00;19.00
22578;DHT22;11455;52.390;13.028;2022-11-20T16:48:51;3.90;18.80
22578;DHT22;11455;52.390;13.028;2022-11-20T16:51:20;3.90;19.30
22578;DHT22;11455;52.390;13.028;2022-11-20T16:53:46;3.90;16.00
22578;DHT22;11455;52.390;13.028;2022-11-20T16:56:13;3.80;24.50
22578;DHT22;11455;52.390;13.028;2022-11-20T16:58:41;3.70;31.80
22578;DHT22;11455;52.390;13.028;2022-11-20T17:01:08;3.70;36.50
22578;DHT22;11455;52.390;13.028;2022-11-20T17:03:38;3.70;33.90
22578;DHT22;11455;52.390;13.028;2022-11-20T17:06:15;3.70;40.20
22578;DHT22;11455;52.390;13.028;2022-11-20T17:08:41;3.80;27.00
22578;DHT22;11455;52.390;13.028;2022-11-20T17:11:07;3.70;19.40
22578;DHT22;11455;52.390;13.028;2022-11-20T17:13:33;3.70;16.10
22578;DHT22;11455;52.390;13.028;2022-11-20T17:16:09;3.70;20.70
22578;DHT22;11455;52.390;13.028;2022-11-20T17:18:34;3.70;21.90
22578;DHT22;11455;52.390;13.028;2022-11-20T17:21:00;3.80;20.30
22578;DHT22;11455;52.390;13.028;2022-11-20T17:23:33;3.80;19.90
22578;DHT22;11455;52.390;13.028;2022-11-20T17:26:03;3.70;22.30
22578;DHT22;11455;52.390;13.028;2022-11-20T17:28:29;3.80;22.90
22578;DHT22;11455;52.390;13.028;2022-11-20T17:30:59;3.80;21.90
22578;DHT22;11455;52.390;13.028;2022-11-20T17:33:28;3.70;23.70
22578;DHT22;11455;52.390;13.028;2022-11-20T17:35:54;3.70;27.50
22578;DHT22;11455;52.390;13.028;2022-11-20T17:38:20;3.60;38.00
22578;DHT22;11455;52.390;13.028;2022-11-20T17:40:46;3.60;40.70
22578;DHT22;11455;52.390;13.028;2022-11-20T17:43:11;3.50;52.10
22578;DHT22;11455;52.390;13.028;2022-11-20T17:45:37;3.60;48.10
22578;DHT22;11455;52.390;13.028;2022-11-20T17:48:03;3.50;52.70